sensor_id;sensor_type;location;lat;lon;timestamp;temperature;humidity
14277;DHT22;7222;57.346;12.150;2023-02-25T00:01:14;1.40;99.90
14277;DHT22;7222;57.346;12.150;2023-02-25T00:03:41;1.40;99.90
14277;DHT22;7222;57.346;12.150;2023-02-25T00:06:12;1.40;99.90
14277;DHT22;7222;57.346;12.150;2023-02-25T00:08:42;1.30;99.90
14277;DHT22;7222;57.346;12.150;2023-02-25T00:11:09;1.30;99.90
14277;DHT22;7222;57.346;12.150;2023-02-25T00:13:38;1.40;99.90
14277;DHT22;7222;57.346;12.150;2023-02-25T00:16:06;1.30;99.90
14277;DHT22;7222;57.346;12.150;2023-02-25T00:18:34;1.20;99.90
14277;DHT22;7222;57.346;12.150;2023-02-25T00:21:04;1.30;99.90
14277;DHT22;7222;57.346;12.150;2023-02-25T00:23:33;1.30;99.90
14277;DHT22;7222;57.346;12.150;2023-02-25T00:26:02;1.30;99.90
14277;DHT22;7222;57.346;12.150;2023-02-25T00:28:30;1.30;99.90
14277;DHT22;7222;57.346;12.150;2023-02-25T00:30:58;1.20;99.90
14277;DHT22;7222;57.346;12.150;2023-02-25T00:33:25;1.20;99.90
14277;DHT22;7222;57.346;12.150;2023-02-25T00:35:52;1.30;99.90
14277;DHT22;7222;57.346;12.150;2023-02-25T00:38:19;1.30;99.90
14277;DHT22;7222;57.346;12.150;2023-02-25T00:40:48;1.20;99.90
14277;DHT22;7222;57.346;12.150;2023-02-25T00:43:15;1.20;99.90
14277;DHT22;7222;57.346;12.150;2023-02-25T00:45:42;1.20;99.90
14277;DHT22;7222;57.346;12.150;2023-02-25T00:48:09;1.20;99.90
14277;DHT22;7222;57.346;12.150;2023-02-25T00:50:35;1.20;99.90
14277;DHT22;7222;57.346;12.150;2023-02-25T00:53:04;1.20;99.90
14277;DHT22;7222;57.346;12.150;2023-02-25T00:55:31;1.20;99.90
14277;DHT22;7222;57.346;12.150;2023-02-25T00:58:00;1.10;99.90
14277;DHT22;7222;57.346;12.150;2023-02-25T01:00:27;1.10;99.90
14277;DHT22;7222;57.346;12.150;2023-02-25T01:02:56;1.10;99.90
14277;DHT22;7222;57.346;12.150;2023-02-25T01:05:23;1.10;99.90
14277;DHT22;7222;57.346;12.150;2023-02-25T01:07:50;1.10;99.90
14277;DHT22;7222;57.346;12.150;2023-02-25T01:10:18;1.10;99.90
14277;DHT22;7222;57.346;12.150;2023-02-25T01:12:45;1.10;99.90
14277;DHT22;7222;57.346;12.150;2023-02-25T01:15:13;1.10;99.90
14277;DHT22;7222;57.346;12.150;2023-02-25T01:17:40;1.10;99.90
14277;DHT22;7222;57.346;12.150;2023-02-25T01:20:08;1.10;99.90
14277;DHT22;7222;57.346;12.150;2023-02-25T01:22:38;1.10;99.90
14277;DHT22;7222;57.346;12.150;2023-02-25T01:25:09;1.00;99.90
14277;DHT22;7222;57.346;12.150;2023-02-25T01:27:36;1.10;99.90
14277;DHT22;7222;57.346;12.150;2023-02-25T01:30:04;1.10;99.90
14277;DHT22;7222;57.346;12.150;2023-02-25T01:32:33;1.00;99.90
14277;DHT22;7222;57.346;12.150;2023-02-25T01:35:00;1.00;99.90
14277;DHT22;7222;57.346;12.150;2023-02-25T01:37:27;1.10;99.90
14277;DHT22;7222;57.346;12.150;2023-02-25T01:39:54;1.00;99.90
14277;DHT22;7222;57.346;12.150;2023-02-25T01:42:21;1.00;99.90
14277;DHT22;7222;57.346;12.150;2023-02-25T01:45:31;1.10;99.90
14277;DHT22;7222;57.346;12.150;2023-02-25T01:48:04;1.10;99.90
14277;DHT22;7222;57.346;12.150;2023-02-25T01:50:36;1.10;99.90
14277;DHT22;7222;57.346;12.150;2023-02-25T01:53:05;1.00;99.90
14277;DHT22;7222;57.346;12.150;2023-02-25T01:55:34;1.10;99.90
14277;DHT22;7222;57.346;12.150;2023-02-25T01:58:01;1.10;99.90
14277;DHT22;7222;57.346;12.150;2023-02-25T02:00:30;1.00;99.90
14277;DHT22;7222;57.346;12.150;2023-02-25T02:03:00;1.00;99.90
14277;DHT22;7222;57.346;12.150;2023-02-25T02:05:49;1.10;99.90
14277;DHT22;7222;57.346;12.150;2023-02-25T02:08:17;1.00;99.90
14277;DHT22;7222;57.346;12.150;2023-02-25T02:10:44;1.00;99.90
14277;DHT22;7222;57.346;12.150;2023-02-25T02:13:11;1.00;99.90
14277;DHT22;7222;57.346;12.150;2023-02-25T02:15:42;1.00;99.90
14277;DHT22;7222;57.346;12.150;2023-02-25T02:18:15;1.00;99.90
14277;DHT22;7222;57.346;12.150;2023-02-25T02:20:51;1.00;99.90
14277;DHT22;7222;57.346;12.150;2023-02-25T02:23:58;1.00;99.90
14277;DHT22;7222;57.346;12.150;2023-02-25T02:26:51;1.10;99.90
14277;DHT22;7222;57.346;12.150;2023-02-25T02:29:45;1.00;99.90
14277;DHT22;7222;57.346;12.150;2023-02-25T02:32:28;1.00;99.90
14277;DHT22;7222;57.346;12.150;2023-02-25T02:35:04;1.00;99.90
14277;DHT22;7222;57.346;12.150;2023-02-25T02:37:39;1.10;99.90
14277;DHT22;7222;57.346;12.150;2023-02-25T02:40:21;1.00;99.90
14277;DHT22;7222;57.346;12.150;2023-02-25T02:43:07;1.00;99.90
14277;DHT22;7222;57.346;12.150;2023-02-25T02:45:40;1.00;99.90
14277;DHT22;7222;57.346;12.150;2023-02-25T02:48:12;1.00;99.90
14277;DHT22;7222;57.346;12.150;2023-02-25T02:50:44;1.00;99.90
14277;DHT22;7222;57.346;12.150;2023-02-25T02:53:15;1.00;99.90
14277;DHT22;7222;57.346;12.150;2023-02-25T02:55:47;1.00;99.90
14277;DHT22;7222;57.346;12.150;2023-02-25T02:58:18;1.00;99.90
14277;DHT22;7222;57.346;12.150;2023-02-25T03:00:49;1.00;99.90
14277;DHT22;7222;57.346;12.150;2023-02-25T03:03:23;1.00;99.90
14277;DHT22;7222;57.346;12.150;2023-02-25T03:06:02;1.00;99.90
14277;DHT22;7222;57.346;12.150;2023-02-25T03:08:31;0.90;99.90
14277;DHT22;7222;57.346;12.150;2023-02-25T03:11:00;1.00;99.90
14277;DHT22;7222;57.346;12.150;2023-02-25T03:13:27;1.00;99.90
14277;DHT22;7222;57.346;12.150;2023-02-25T03:15:54;1.00;99.90
14277;DHT22;7222;57.346;12.150;2023-02-25T03:18:30;0.90;99.90
14277;DHT22;7222;57.346;12.150;2023-02-25T03:21:00;0.90;99.90
14277;DHT22;7222;57.346;12.150;2023-02-25T03:23:31;0.90;99.90
14277;DHT22;7222;57.346;12.150;2023-02-25T03:26:10;1.00;99.90
14277;DHT22;7222;57.346;12.150;2023-02-25T03:28:38;0.90;99.90
14277;DHT22;7222;57.346;12.150;2023-02-25T03:31:10;0.90;99.90
14277;DHT22;7222;57.346;12.150;2023-02-25T03:33:44;0.90;99.90
14277;DHT22;7222;57.346;12.150;2023-02-25T03:36:16;0.80;99.90
14277;DHT22;7222;57.346;12.150;2023-02-25T03:38:46;0.90;99.90
14277;DHT22;7222;57.346;12.150;2023-02-25T03:41:16;0.90;99.90
14277;DHT22;7222;57.346;12.150;2023-02-25T03:43:47;0.90;99.90
14277;DHT22;7222;57.346;12.150;2023-02-25T03:46:15;0.80;99.90
14277;DHT22;7222;57.346;12.150;2023-02-25T03:48:45;0.80;99.90
14277;DHT22;7222;57.346;12.150;2023-02-25T03:51:15;0.80;99.90
14277;DHT22;7222;57.346;12.150;2023-02-25T03:53:43;0.70;99.90
14277;DHT22;7222;57.346;12.150;2023-02-25T03:56:11;0.70;99.90
14277;DHT22;7222;57.346;12.150;2023-02-25T03:58:40;0.70;99.90
14277;DHT22;7222;57.346;12.150;2023-02-25T04:01:12;0.70;99.90
14277;DHT22;7222;57.346;12.150;2023-02-25T04:03:40;0.70;99.90
14277;DHT22;7222;57.346;12.150;2023-02-25T04:06:10;0.60;99.90
14277;DHT22;7222;57.346;12.150;2023-02-25T04:08:37;0.50;99.90
14277;DHT22;7222;57.346;12.150;2023-02-25T04:11:05;0.50;99.90
14277;DHT22;7222;57.346;12.150;2023-02-25T04:13:31;0.50;99.90
14277;DHT22;7222;57.346;12.150;2023-02-25T04:15:58;0.50;99.90
14277;DHT22;7222;57.346;12.150;2023-02-25T04:18:25;0.40;99.90
14277;DHT22;7222;57.346;12.150;2023-02-25T04:20:52;0.30;99.90
14277;DHT22;7222;57.346;12.150;2023-02-25T04:23:21;0.40;99.90
14277;DHT22;7222;57.346;12.150;2023-02-25T04:25:48;0.30;99.90
14277;DHT22;7222;57.346;12.150;2023-02-25T04:28:16;0.30;99.90
14277;DHT22;7222;57.346;12.150;2023-02-25T04:30:42;0.20;99.90
14277;DHT22;7222;57.346;12.150;2023-02-25T04:33:10;0.30;99.90
14277;DHT22;7222;57.346;12.150;2023-02-25T04:35:37;0.20;99.90
14277;DHT22;7222;57.346;12.150;2023-02-25T04:38:04;0.20;99.90
14277;DHT22;7222;57.346;12.150;2023-02-25T04:40:33;0.20;99.90
14277;DHT22;7222;57.346;12.150;2023-02-25T04:42:59;0.20;99.90
14277;DHT22;7222;57.346;12.150;2023-02-25T04:45:26;0.10;99.90
14277;DHT22;7222;57.346;12.150;2023-02-25T04:47:54;0.10;99.90
14277;DHT22;7222;57.346;12.150;2023-02-25T04:50:23;0.10;99.90
14277;DHT22;7222;57.346;12.150;2023-02-25T04:52:50;0.10;99.90
14277;DHT22;7222;57.346;12.150;2023-02-25T04:55:17;0.10;99.90
14277;DHT22;7222;57.346;12.150;2023-02-25T04:57:46;0.10;99.90
14277;DHT22;7222;57.346;12.150;2023-02-25T05:02:44;-0.10;99.90
14277;DHT22;7222;57.346;12.150;2023-02-25T05:05:11;-0.10;99.90
14277;DHT22;7222;57.346;12.150;2023-02-25T05:07:38;-0.10;99.90
14277;DHT22;7222;57.346;12.150;2023-02-25T05:10:06;0.00;99.90
14277;DHT22;7222;57.346;12.150;2023-02-25T05:12:33;-0.20;99.90
14277;DHT22;7222;57.346;12.150;2023-02-25T05:15:02;-0.20;99.90
14277;DHT22;7222;57.346;12.150;2023-02-25T05:17:29;-0.20;99.90
14277;DHT22;7222;57.346;12.150;2023-02-25T05:19:57;-0.30;99.90
14277;DHT22;7222;57.346;12.150;2023-02-25T05:22:24;-0.20;99.90
14277;DHT22;7222;57.346;12.150;2023-02-25T05:24:51;-0.30;99.90
14277;DHT22;7222;57.346;12.150;2023-02-25T05:27:18;-0.40;99.90
14277;DHT22;7222;57.346;12.150;2023-02-25T05:29:45;-0.30;99.90
14277;DHT22;7222;57.346;12.150;2023-02-25T05:32:13;-0.40;99.90
14277;DHT22;7222;57.346;12.150;2023-02-25T05:34:40;-0.40;99.90
14277;DHT22;7222;57.346;12.150;2023-02-25T05:37:07;-0.50;99.90
14277;DHT22;7222;57.346;12.150;2023-02-25T05:39:35;-0.50;99.90
14277;DHT22;7222;57.346;12.150;2023-02-25T05:42:02;-0.50;99.90
14277;DHT22;7222;57.346;12.150;2023-02-25T05:44:28;-0.50;99.90
14277;DHT22;7222;57.346;12.150;2023-02-25T05:46:56;-0.60;99.90
14277;DHT22;7222;57.346;12.150;2023-02-25T05:49:24;-0.50;99.90
14277;DHT22;7222;57.346;12.150;2023-02-25T05:51:51;-0.60;99.90
14277;DHT22;7222;57.346;12.150;2023-02-25T05:54:18;-0.60;99.90
14277;DHT22;7222;57.346;12.150;2023-02-25T05:56:45;-0.60;99.90
14277;DHT22;7222;57.346;12.150;2023-02-25T05:59:12;-0.70;99.90
14277;DHT22;7222;57.346;12.150;2023-02-25T06:01:38;-0.70;99.90
14277;DHT22;7222;57.346;12.150;2023-02-25T06:04:06;-0.70;99.90
14277;DHT22;7222;57.346;12.150;2023-02-25T06:06:35;-0.70;99.90
14277;DHT22;7222;57.346;12.150;2023-02-25T06:09:03;-0.80;99.90
14277;DHT22;7222;57.346;12.150;2023-02-25T06:11:31;-0.80;99.90
14277;DHT22;7222;57.346;12.150;2023-02-25T06:13:58;-0.90;99.90
14277;DHT22;7222;57.346;12.150;2023-02-25T06:16:26;-0.90;99.90
14277;DHT22;7222;57.346;12.150;2023-02-25T06:18:56;-0.90;99.90
14277;DHT22;7222;57.346;12.150;2023-02-25T06:21:23;-0.90;99.90
14277;DHT22;7222;57.346;12.150;2023-02-25T06:23:52;-1.00;99.90
14277;DHT22;7222;57.346;12.150;2023-02-25T06:26:19;-1.00;99.90
14277;DHT22;7222;57.346;12.150;2023-02-25T06:28:45;-1.00;99.90
14277;DHT22;7222;57.346;12.150;2023-02-25T06:31:14;-1.10;99.90
14277;DHT22;7222;57.346;12.150;2023-02-25T06:33:41;-1.10;99.90
14277;DHT22;7222;57.346;12.150;2023-02-25T06:36:09;-1.10;99.90
14277;DHT22;7222;57.346;12.150;2023-02-25T06:38:36;-1.10;99.90
14277;DHT22;7222;57.346;12.150;2023-02-25T06:41:06;-1.10;99.90
14277;DHT22;7222;57.346;12.150;2023-02-25T06:43:33;-1.10;99.90
14277;DHT22;7222;57.346;12.150;2023-02-25T06:46:03;-1.20;99.90
14277;DHT22;7222;57.346;12.150;2023-02-25T06:48:31;-1.20;99.90
14277;DHT22;7222;57.346;12.150;2023-02-25T06:50:57;-1.20;99.90
14277;DHT22;7222;57.346;12.150;2023-02-25T06:53:25;-1.20;99.90
14277;DHT22;7222;57.346;12.150;2023-02-25T06:55:51;-1.20;99.90
14277;DHT22;7222;57.346;12.150;2023-02-25T06:58:20;-1.20;99.90
14277;DHT22;7222;57.346;12.150;2023-02-25T07:00:47;-1.20;99.90
14277;DHT22;7222;57.346;12.150;2023-02-25T07:03:14;-1.20;99.90
14277;DHT22;7222;57.346;12.150;2023-02-25T07:05:42;-1.20;99.90
14277;DHT22;7222;57.346;12.150;2023-02-25T07:08:09;-1.20;99.90
14277;DHT22;7222;57.346;12.150;2023-02-25T07:10:36;-1.20;99.90
14277;DHT22;7222;57.346;12.150;2023-02-25T07:13:06;-1.20;99.90
14277;DHT22;7222;57.346;12.150;2023-02-25T07:15:34;-1.20;99.90
14277;DHT22;7222;57.346;12.150;2023-02-25T07:18:02;-1.20;99.90
14277;DHT22;7222;57.346;12.150;2023-02-25T07:20:29;-1.10;99.90
14277;DHT22;7222;57.346;12.150;2023-02-25T07:22:55;-1.20;99.90
14277;DHT22;7222;57.346;12.150;2023-02-25T07:25:23;-1.20;99.90
14277;DHT22;7222;57.346;12.150;2023-02-25T07:27:50;-1.00;99.90
14277;DHT22;7222;57.346;12.150;2023-02-25T07:30:19;-1.10;99.90
14277;DHT22;7222;57.346;12.150;2023-02-25T07:32:47;-1.10;99.90
14277;DHT22;7222;57.346;12.150;2023-02-25T07:35:14;-1.10;99.90
14277;DHT22;7222;57.346;12.150;2023-02-25T07:37:41;-1.00;99.90
14277;DHT22;7222;57.346;12.150;2023-02-25T07:40:09;-1.00;99.90
14277;DHT22;7222;57.346;12.150;2023-02-25T07:42:38;-0.90;99.90
14277;DHT22;7222;57.346;12.150;2023-02-25T07:45:07;-0.90;99.90
14277;DHT22;7222;57.346;12.150;2023-02-25T07:47:34;-0.90;99.90
14277;DHT22;7222;57.346;12.150;2023-02-25T07:50:02;-0.90;99.90
14277;DHT22;7222;57.346;12.150;2023-02-25T07:52:30;-0.90;99.90
14277;DHT22;7222;57.346;12.150;2023-02-25T07:54:57;-0.70;99.90
14277;DHT22;7222;57.346;12.150;2023-02-25T07:57:24;-0.70;99.90
14277;DHT22;7222;57.346;12.150;2023-02-25T07:59:50;-0.60;99.90
14277;DHT22;7222;57.346;12.150;2023-02-25T08:02:17;-0.70;99.90
14277;DHT22;7222;57.346;12.150;2023-02-25T08:04:45;-0.80;99.90
14277;DHT22;7222;57.346;12.150;2023-02-25T08:07:13;-0.70;99.90
14277;DHT22;7222;57.346;12.150;2023-02-25T08:09:40;-0.60;99.90
14277;DHT22;7222;57.346;12.150;2023-02-25T08:12:07;-0.60;99.90
14277;DHT22;7222;57.346;12.150;2023-02-25T08:14:36;-0.70;99.90
14277;DHT22;7222;57.346;12.150;2023-02-25T08:17:04;-0.80;99.90
14277;DHT22;7222;57.346;12.150;2023-02-25T08:19:31;-0.70;99.90
14277;DHT22;7222;57.346;12.150;2023-02-25T08:21:58;-0.60;99.90
14277;DHT22;7222;57.346;12.150;2023-02-25T08:24:27;-0.70;99.90
14277;DHT22;7222;57.346;12.150;2023-02-25T08:26:54;-0.70;99.90
14277;DHT22;7222;57.346;12.150;2023-02-25T08:29:21;-0.70;99.90
14277;DHT22;7222;57.346;12.150;2023-02-25T08:31:49;-0.70;99.90
14277;DHT22;7222;57.346;12.150;2023-02-25T08:34:16;-0.60;99.90
14277;DHT22;7222;57.346;12.150;2023-02-25T08:36:44;-0.60;99.90
14277;DHT22;7222;57.346;12.150;2023-02-25T08:39:11;-0.50;99.90
14277;DHT22;7222;57.346;12.150;2023-02-25T08:41:39;-0.40;99.90
14277;DHT22;7222;57.346;12.150;2023-02-25T08:44:07;-0.50;99.90
14277;DHT22;7222;57.346;12.150;2023-02-25T08:46:34;-0.40;99.90
14277;DHT22;7222;57.346;12.150;2023-02-25T08:49:02;-0.50;99.90
14277;DHT22;7222;57.346;12.150;2023-02-25T08:51:30;-0.50;99.90
14277;DHT22;7222;57.346;12.150;2023-02-25T08:54:01;-0.30;99.90
14277;DHT22;7222;57.346;12.150;2023-02-25T08:56:28;-0.40;99.90
14277;DHT22;7222;57.346;12.150;2023-02-25T08:58:57;-0.20;99.90
14277;DHT22;7222;57.346;12.150;2023-02-25T09:01:24;-0.20;99.90
14277;DHT22;7222;57.346;12.150;2023-02-25T09:04:03;0.00;99.90
14277;DHT22;7222;57.346;12.150;2023-02-25T09:06:30;0.00;99.90
14277;DHT22;7222;57.346;12.150;2023-02-25T09:08:58;0.20;99.90
14277;DHT22;7222;57.346;12.150;2023-02-25T09:11:25;0.10;99.90
14277;DHT22;7222;57.346;12.150;2023-02-25T09:13:52;0.20;99.90
14277;DHT22;7222;57.346;12.150;2023-02-25T09:16:21;0.40;99.90
14277;DHT22;7222;57.346;12.150;2023-02-25T09:18:49;0.40;99.90
14277;DHT22;7222;57.346;12.150;2023-02-25T09:21:17;0.50;99.90
14277;DHT22;7222;57.346;12.150;2023-02-25T09:23:44;0.40;99.90
14277;DHT22;7222;57.346;12.150;2023-02-25T09:26:12;0.50;99.90
14277;DHT22;7222;57.346;12.150;2023-02-25T09:28:39;0.60;99.90
14277;DHT22;7222;57.346;12.150;2023-02-25T09:31:06;0.70;99.90
14277;DHT22;7222;57.346;12.150;2023-02-25T09:33:35;0.90;99.90
14277;DHT22;7222;57.346;12.150;2023-02-25T09:36:05;1.20;99.90
14277;DHT22;7222;57.346;12.150;2023-02-25T09:38:33;1.10;99.90
14277;DHT22;7222;57.346;12.150;2023-02-25T09:41:00;1.40;99.90
14277;DHT22;7222;57.346;12.150;2023-02-25T09:43:29;1.50;99.90
14277;DHT22;7222;57.346;12.150;2023-02-25T09:46:03;1.60;99.90
14277;DHT22;7222;57.346;12.150;2023-02-25T09:48:37;1.80;99.90
14277;DHT22;7222;57.346;12.150;2023-02-25T09:51:18;2.00;99.90
14277;DHT22;7222;57.346;12.150;2023-02-25T09:53:50;2.00;99.90
14277;DHT22;7222;57.346;12.150;2023-02-25T09:56:19;2.10;99.90
14277;DHT22;7222;57.346;12.150;2023-02-25T09:58:51;2.20;99.90
14277;DHT22;7222;57.346;12.150;2023-02-25T10:01:24;2.30;99.90
14277;DHT22;7222;57.346;12.150;2023-02-25T10:04:03;2.50;99.90
14277;DHT22;7222;57.346;12.150;2023-02-25T10:06:34;2.90;99.90
14277;DHT22;7222;57.346;12.150;2023-02-25T10:09:08;2.90;99.90
14277;DHT22;7222;57.346;12.150;2023-02-25T10:11:45;3.20;99.90
14277;DHT22;7222;57.346;12.150;2023-02-25T10:14:35;3.10;99.90
14277;DHT22;7222;57.346;12.150;2023-02-25T10:17:09;3.20;99.90
14277;DHT22;7222;57.346;12.150;2023-02-25T10:19:49;3.20;99.90
14277;DHT22;7222;57.346;12.150;2023-02-25T10:22:37;3.30;99.90
14277;DHT22;7222;57.346;12.150;2023-02-25T10:25:11;3.30;99.90
14277;DHT22;7222;57.346;12.150;2023-02-25T10:27:43;3.50;99.90
14277;DHT22;7222;57.346;12.150;2023-02-25T10:30:15;3.60;99.90
14277;DHT22;7222;57.346;12.150;2023-02-25T10:32:45;3.90;99.90
14277;DHT22;7222;57.346;12.150;2023-02-25T10:35:17;4.00;99.90
14277;DHT22;7222;57.346;12.150;2023-02-25T10:37:45;4.20;99.90
14277;DHT22;7222;57.346;12.150;2023-02-25T10:40:14;4.60;99.90
14277;DHT22;7222;57.346;12.150;2023-02-25T10:42:45;4.90;99.90
14277;DHT22;7222;57.346;12.150;2023-02-25T10:45:17;5.60;99.90
14277;DHT22;7222;57.346;12.150;2023-02-25T10:47:47;5.70;99.90
14277;DHT22;7222;57.346;12.150;2023-02-25T10:50:20;6.30;99.90
14277;DHT22;7222;57.346;12.150;2023-02-25T10:52:52;6.30;99.90
14277;DHT22;7222;57.346;12.150;2023-02-25T10:55:39;6.40;99.90
14277;DHT22;7222;57.346;12.150;2023-02-25T10:58:25;6.70;99.90
14277;DHT22;7222;57.346;12.150;2023-02-25T11:00:57;7.50;99.90
14277;DHT22;7222;57.346;12.150;2023-02-25T11:03:24;7.00;99.90
14277;DHT22;7222;57.346;12.150;2023-02-25T11:06:07;6.80;99.90
14277;DHT22;7222;57.346;12.150;2023-02-25T11:08:34;7.30;99.90
14277;DHT22;7222;57.346;12.150;2023-02-25T11:11:04;7.30;99.90
14277;DHT22;7222;57.346;12.150;2023-02-25T11:13:35;7.80;99.90
14277;DHT22;7222;57.346;12.150;2023-02-25T11:16:05;8.70;99.90
14277;DHT22;7222;57.346;12.150;2023-02-25T11:18:33;9.40;99.90
14277;DHT22;7222;57.346;12.150;2023-02-25T11:21:05;9.50;99.90
14277;DHT22;7222;57.346;12.150;2023-02-25T11:23:35;10.10;99.90
14277;DHT22;7222;57.346;12.150;2023-02-25T11:26:04;9.70;99.90
14277;DHT22;7222;57.346;12.150;2023-02-25T11:28:33;9.10;99.90
14277;DHT22;7222;57.346;12.150;2023-02-25T11:31:10;8.10;99.90
14277;DHT22;7222;57.346;12.150;2023-02-25T11:33:41;7.50;99.90
14277;DHT22;7222;57.346;12.150;2023-02-25T11:36:10;7.30;99.90
14277;DHT22;7222;57.346;12.150;2023-02-25T11:38:39;7.10;99.90
14277;DHT22;7222;57.346;12.150;2023-02-25T11:41:14;6.80;99.90
14277;DHT22;7222;57.346;12.150;2023-02-25T11:43:42;7.20;99.90
14277;DHT22;7222;57.346;12.150;2023-02-25T11:46:13;7.30;99.90
14277;DHT22;7222;57.346;12.150;2023-02-25T11:48:48;7.20;99.90
14277;DHT22;7222;57.346;12.150;2023-02-25T11:51:23;7.00;99.90
14277;DHT22;7222;57.346;12.150;2023-02-25T11:54:07;6.90;99.90
14277;DHT22;7222;57.346;12.150;2023-02-25T11:56:40;6.80;99.90
14277;DHT22;7222;57.346;12.150;2023-02-25T11:59:25;6.80;99.90
14277;DHT22;7222;57.346;12.150;2023-02-25T12:02:08;6.60;99.90
14277;DHT22;7222;57.346;12.150;2023-02-25T12:04:55;6.50;99.90
14277;DHT22;7222;57.346;12.150;2023-02-25T12:07:43;6.70;99.90
14277;DHT22;7222;57.346;12.150;2023-02-25T12:10:39;6.70;99.90
14277;DHT22;7222;57.346;12.150;2023-02-25T12:22:24;5.90;99.90
14277;DHT22;7222;57.346;12.150;2023-02-25T12:25:10;5.80;99.90
14277;DHT22;7222;57.346;12.150;2023-02-25T12:27:58;5.80;99.90
14277;DHT22;7222;57.346;12.150;2023-02-25T12:30:53;5.70;99.90
14277;DHT22;7222;57.346;12.150;2023-02-25T12:33:44;5.50;99.90
14277;DHT22;7222;57.346;12.150;2023-02-25T12:36:25;5.90;99.90
14277;DHT22;7222;57.346;12.150;2023-02-25T12:42:04;6.00;99.90
14277;DHT22;7222;57.346;12.150;2023-02-25T12:44:45;6.10;99.90
14277;DHT22;7222;57.346;12.150;2023-02-25T12:47:22;6.20;99.90
14277;DHT22;7222;57.346;12.150;2023-02-25T12:50:24;6.30;99.90
14277;DHT22;7222;57.346;12.150;2023-02-25T12:53:11;6.40;99.90
14277;DHT22;7222;57.346;12.150;2023-02-25T12:56:09;6.20;99.90
14277;DHT22;7222;57.346;12.150;2023-02-25T12:58:48;5.70;99.90
14277;DHT22;7222;57.346;12.150;2023-02-25T13:01:37;5.60;20.50
14277;DHT22;7222;57.346;12.150;2023-02-25T13:04:32;5.60;99.90
14277;DHT22;7222;57.346;12.150;2023-02-25T13:07:35;5.80;1.00
14277;DHT22;7222;57.346;12.150;2023-02-25T13:10:20;5.80;99.90
14277;DHT22;7222;57.346;12.150;2023-02-25T13:13:08;5.90;1.00
14277;DHT22;7222;57.346;12.150;2023-02-25T13:15:51;6.00;1.00
14277;DHT22;7222;57.346;12.150;2023-02-25T13:18:26;6.10;99.90
14277;DHT22;7222;57.346;12.150;2023-02-25T13:21:06;6.00;1.00
14277;DHT22;7222;57.346;12.150;2023-02-25T13:23:47;6.00;1.00
14277;DHT22;7222;57.346;12.150;2023-02-25T13:26:41;6.40;1.00
14277;DHT22;7222;57.346;12.150;2023-02-25T13:29:27;6.50;1.00
14277;DHT22;7222;57.346;12.150;2023-02-25T13:32:13;6.80;99.90
14277;DHT22;7222;57.346;12.150;2023-02-25T13:34:47;6.70;99.90
14277;DHT22;7222;57.346;12.150;2023-02-25T13:37:24;6.50;47.40
14277;DHT22;7222;57.346;12.150;2023-02-25T13:42:59;5.80;99.90
14277;DHT22;7222;57.346;12.150;2023-02-25T13:45:45;6.20;1.00
14277;DHT22;7222;57.346;12.150;2023-02-25T13:48:40;6.70;1.00
14277;DHT22;7222;57.346;12.150;2023-02-25T13:51:26;7.40;39.60
14277;DHT22;7222;57.346;12.150;2023-02-25T13:54:09;8.30;1.00
14277;DHT22;7222;57.346;12.150;2023-02-25T13:56:55;7.90;1.00
14277;DHT22;7222;57.346;12.150;2023-02-25T13:59:33;7.80;1.00
14277;DHT22;7222;57.346;12.150;2023-02-25T14:02:25;7.00;99.90
14277;DHT22;7222;57.346;12.150;2023-02-25T14:05:33;6.40;1.00
14277;DHT22;7222;57.346;12.150;2023-02-25T14:08:11;7.10;1.00
14277;DHT22;7222;57.346;12.150;2023-02-25T14:10:49;8.10;99.90
14277;DHT22;7222;57.346;12.150;2023-02-25T14:13:34;7.90;99.90
14277;DHT22;7222;57.346;12.150;2023-02-25T14:16:11;8.50;1.00
14277;DHT22;7222;57.346;12.150;2023-02-25T14:18:51;8.00;1.00
14277;DHT22;7222;57.346;12.150;2023-02-25T14:21:48;8.70;1.00
14277;DHT22;7222;57.346;12.150;2023-02-25T14:24:22;9.00;99.90
14277;DHT22;7222;57.346;12.150;2023-02-25T14:27:01;8.70;99.90
14277;DHT22;7222;57.346;12.150;2023-02-25T14:29:40;8.80;1.00
14277;DHT22;7222;57.346;12.150;2023-02-25T14:32:35;8.80;99.90
14277;DHT22;7222;57.346;12.150;2023-02-25T14:35:18;8.70;1.00
14277;DHT22;7222;57.346;12.150;2023-02-25T14:38:00;7.80;99.90
14277;DHT22;7222;57.346;12.150;2023-02-25T14:40:38;7.00;1.00
14277;DHT22;7222;57.346;12.150;2023-02-25T14:43:29;6.80;1.00
14277;DHT22;7222;57.346;12.150;2023-02-25T14:46:06;6.60;99.90
14277;DHT22;7222;57.346;12.150;2023-02-25T14:48:41;6.60;1.00
14277;DHT22;7222;57.346;12.150;2023-02-25T14:54:31;6.40;1.00
14277;DHT22;7222;57.346;12.150;2023-02-25T14:57:24;6.20;99.90
14277;DHT22;7222;57.346;12.150;2023-02-25T15:00:14;5.80;1.00
14277;DHT22;7222;57.346;12.150;2023-02-25T15:06:18;5.70;99.90
14277;DHT22;7222;57.346;12.150;2023-02-25T15:12:11;5.50;99.90
14277;DHT22;7222;57.346;12.150;2023-02-25T15:18:10;5.20;1.00
14277;DHT22;7222;57.346;12.150;2023-02-25T15:20:42;5.30;99.90
14277;DHT22;7222;57.346;12.150;2023-02-25T15:23:10;5.20;99.90
14277;DHT22;7222;57.346;12.150;2023-02-25T15:25:46;5.20;99.90
14277;DHT22;7222;57.346;12.150;2023-02-25T15:28:34;5.10;1.00
14277;DHT22;7222;57.346;12.150;2023-02-25T15:31:27;4.90;1.00
14277;DHT22;7222;57.346;12.150;2023-02-25T15:34:32;4.50;99.90
14277;DHT22;7222;57.346;12.150;2023-02-25T15:37:22;4.50;1.00
14277;DHT22;7222;57.346;12.150;2023-02-25T15:39:51;4.30;99.90
14277;DHT22;7222;57.346;12.150;2023-02-25T15:42:44;4.50;99.90
14277;DHT22;7222;57.346;12.150;2023-02-25T15:45:37;4.30;99.90
14277;DHT22;7222;57.346;12.150;2023-02-25T15:48:28;4.10;51.50
14277;DHT22;7222;57.346;12.150;2023-02-25T15:50:56;4.00;99.90
14277;DHT22;7222;57.346;12.150;2023-02-25T15:53:39;4.00;99.90
14277;DHT22;7222;57.346;12.150;2023-02-25T15:56:28;3.80;1.00
14277;DHT22;7222;57.346;12.150;2023-02-25T15:58:57;3.90;1.00
14277;DHT22;7222;57.346;12.150;2023-02-25T16:01:37;3.80;1.00
14277;DHT22;7222;57.346;12.150;2023-02-25T16:04:49;3.80;99.90
14277;DHT22;7222;57.346;12.150;2023-02-25T16:07:18;3.50;1.00
14277;DHT22;7222;57.346;12.150;2023-02-25T16:09:51;3.70;99.90
14277;DHT22;7222;57.346;12.150;2023-02-25T16:12:20;3.50;1.00
14277;DHT22;7222;57.346;12.150;2023-02-25T16:14:48;3.20;99.90
14277;DHT22;7222;57.346;12.150;2023-02-25T16:17:18;3.30;1.00
14277;DHT22;7222;57.346;12.150;2023-02-25T16:19:51;3.40;99.90
14277;DHT22;7222;57.346;12.150;2023-02-25T16:22:21;3.30;99.90
14277;DHT22;7222;57.346;12.150;2023-02-25T16:24:50;3.10;99.90
14277;DHT22;7222;57.346;12.150;2023-02-25T16:27:29;2.90;1.00
14277;DHT22;7222;57.346;12.150;2023-02-25T16:30:05;3.10;99.90
14277;DHT22;7222;57.346;12.150;2023-02-25T16:32:42;2.90;99.90
14277;DHT22;7222;57.346;12.150;2023-02-25T16:35:22;2.90;99.90
14277;DHT22;7222;57.346;12.150;2023-02-25T16:37:58;2.80;99.90
14277;DHT22;7222;57.346;12.150;2023-02-25T16:40:30;2.80;99.90
14277;DHT22;7222;57.346;12.150;2023-02-25T16:42:59;2.60;99.90
14277;DHT22;7222;57.346;12.150;2023-02-25T16:45:29;2.60;99.90
14277;DHT22;7222;57.346;12.150;2023-02-25T16:48:00;2.60;99.90
14277;DHT22;7222;57.346;12.150;2023-02-25T16:50:31;2.50;99.90